sensor_id;sensor_type;location;lat;lon;timestamp;pressure;altitude;pressure_sealevel;temperature;humidity
35435;BME280;21556;55.782;37.528;2023-09-08T00:00:20;100119.75;;;14.34;100.00
35435;BME280;21556;55.782;37.528;2023-09-08T00:02:46;100116.81;;;14.00;100.00
35435;BME280;21556;55.782;37.528;2023-09-08T00:05:18;100121.88;;;13.79;100.00
35435;BME280;21556;55.782;37.528;2023-09-08T00:07:52;100112.38;;;13.91;100.00
35435;BME280;21556;55.782;37.528;2023-09-08T00:10:22;100113.25;;;13.92;100.00
35435;BME280;21556;55.782;37.528;2023-09-08T00:12:48;100113.31;;;13.98;100.00
35435;BME280;21556;55.782;37.528;2023-09-08T00:15:15;100112.22;;;13.79;100.00
35435;BME280;21556;55.782;37.528;2023-09-08T00:17:46;100107.00;;;13.85;100.00
35435;BME280;21556;55.782;37.528;2023-09-08T00:20:17;100113.22;;;13.87;100.00
35435;BME280;21556;55.782;37.528;2023-09-08T00:22:46;100105.19;;;13.77;100.00
35435;BME280;21556;55.782;37.528;2023-09-08T00:25:15;100111.38;;;13.82;100.00
35435;BME280;21556;55.782;37.528;2023-09-08T00:27:45;100101.31;;;14.35;100.00
35435;BME280;21556;55.782;37.528;2023-09-08T00:30:18;100106.28;;;13.99;100.00
35435;BME280;21556;55.782;37.528;2023-09-08T00:33:19;100110.75;;;14.09;100.00
35435;BME280;21556;55.782;37.528;2023-09-08T00:36:12;100111.44;;;13.88;100.00
35435;BME280;21556;55.782;37.528;2023-09-08T00:38:39;100102.72;;;13.95;100.00
35435;BME280;21556;55.782;37.528;2023-09-08T00:41:14;100109.78;;;14.01;100.00
35435;BME280;21556;55.782;37.528;2023-09-08T00:43:47;100099.91;;;13.78;100.00
35435;BME280;21556;55.782;37.528;2023-09-08T00:46:23;100099.41;;;14.17;100.00
35435;BME280;21556;55.782;37.528;2023-09-08T00:48:52;100105.41;;;13.98;100.00
35435;BME280;21556;55.782;37.528;2023-09-08T00:51:19;100093.00;;;13.88;100.00
35435;BME280;21556;55.782;37.528;2023-09-08T00:53:47;100093.69;;;13.71;100.00
35435;BME280;21556;55.782;37.528;2023-09-08T00:56:22;100092.78;;;13.68;100.00
35435;BME280;21556;55.782;37.528;2023-09-08T00:58:54;100101.63;;;13.73;100.00
35435;BME280;21556;55.782;37.528;2023-09-08T01:01:23;100092.00;;;13.77;100.00
35435;BME280;21556;55.782;37.528;2023-09-08T01:04:02;100083.44;;;13.20;100.00
35435;BME280;21556;55.782;37.528;2023-09-08T01:06:33;100078.38;;;13.35;100.00
35435;BME280;21556;55.782;37.528;2023-09-08T01:09:00;100088.81;;;13.28;100.00
35435;BME280;21556;55.782;37.528;2023-09-08T01:11:29;100089.81;;;13.37;100.00
35435;BME280;21556;55.782;37.528;2023-09-08T01:13:56;100084.75;;;13.56;100.00
35435;BME280;21556;55.782;37.528;2023-09-08T01:16:23;100095.38;;;13.65;100.00
35435;BME280;21556;55.782;37.528;2023-09-08T01:18:49;100089.66;;;13.23;100.00
35435;BME280;21556;55.782;37.528;2023-09-08T01:24:15;100088.81;;;13.28;100.00
35435;BME280;21556;55.782;37.528;2023-09-08T01:26:54;100078.44;;;13.43;100.00
35435;BME280;21556;55.782;37.528;2023-09-08T01:29:21;100073.69;;;13.11;100.00
35435;BME280;21556;55.782;37.528;2023-09-08T01:31:51;100086.34;;;13.41;100.00
35435;BME280;21556;55.782;37.528;2023-09-08T01:34:18;100088.09;;;13.41;100.00
35435;BME280;21556;55.782;37.528;2023-09-08T01:36:45;100085.59;;;13.53;100.00
35435;BME280;21556;55.782;37.528;2023-09-08T01:39:12;100088.28;;;12.86;100.00
35435;BME280;21556;55.782;37.528;2023-09-08T01:41:46;100095.22;;;12.81;100.00
35435;BME280;21556;55.782;37.528;2023-09-08T01:44:16;100085.66;;;12.88;100.00
35435;BME280;21556;55.782;37.528;2023-09-08T01:46:45;100081.94;;;12.72;100.00
35435;BME280;21556;55.782;37.528;2023-09-08T01:49:11;100080.94;;;12.64;100.00
35435;BME280;21556;55.782;37.528;2023-09-08T01:51:37;100084.25;;;12.50;100.00
35435;BME280;21556;55.782;37.528;2023-09-08T01:54:09;100066.19;;;12.76;100.00
35435;BME280;21556;55.782;37.528;2023-09-08T01:56:38;100073.69;;;12.47;100.00
35435;BME280;21556;55.782;37.528;2023-09-08T01:59:20;100074.09;;;12.75;100.00
35435;BME280;21556;55.782;37.528;2023-09-08T02:01:59;100057.91;;;12.47;100.00
35435;BME280;21556;55.782;37.528;2023-09-08T02:04:25;100071.97;;;12.49;100.00
35435;BME280;21556;55.782;37.528;2023-09-08T02:06:55;100071.06;;;12.49;100.00
35435;BME280;21556;55.782;37.528;2023-09-08T02:09:21;100061.41;;;12.48;100.00
35435;BME280;21556;55.782;37.528;2023-09-08T02:11:51;100073.69;;;12.49;100.00
35435;BME280;21556;55.782;37.528;2023-09-08T02:14:17;100065.91;;;12.55;100.00
35435;BME280;21556;55.782;37.528;2023-09-08T02:16:47;100060.38;;;12.37;100.00
35435;BME280;21556;55.782;37.528;2023-09-08T02:19:15;100049.91;;;12.41;100.00
35435;BME280;21556;55.782;37.528;2023-09-08T02:21:48;100054.00;;;12.21;100.00
35435;BME280;21556;55.782;37.528;2023-09-08T02:24:23;100047.25;;;12.40;100.00
35435;BME280;21556;55.782;37.528;2023-09-08T02:26:49;100045.06;;;12.11;100.00
35435;BME280;21556;55.782;37.528;2023-09-08T02:29:16;100040.91;;;12.24;100.00
35435;BME280;21556;55.782;37.528;2023-09-08T02:31:42;100034.41;;;12.63;100.00
35435;BME280;21556;55.782;37.528;2023-09-08T02:34:11;100034.16;;;12.44;100.00
35435;BME280;21556;55.782;37.528;2023-09-08T02:36:38;100025.50;;;12.51;100.00
35435;BME280;21556;55.782;37.528;2023-09-08T02:39:05;100019.44;;;12.57;100.00
35435;BME280;21556;55.782;37.528;2023-09-08T02:41:31;100026.38;;;12.52;100.00
35435;BME280;21556;55.782;37.528;2023-09-08T02:43:57;100026.38;;;12.52;100.00
35435;BME280;21556;55.782;37.528;2023-09-08T02:46:24;100027.34;;;11.99;100.00
35435;BME280;21556;55.782;37.528;2023-09-08T02:48:51;100026.94;;;12.28;100.00
35435;BME280;21556;55.782;37.528;2023-09-08T02:51:18;100021.13;;;11.94;100.00
35435;BME280;21556;55.782;37.528;2023-09-08T02:53:44;100017.34;;;12.32;100.00
35435;BME280;21556;55.782;37.528;2023-09-08T02:56:10;100018.06;;;12.21;100.00
35435;BME280;21556;55.782;37.528;2023-09-08T02:58:36;100027.75;;;12.27;100.00
35435;BME280;21556;55.782;37.528;2023-09-08T03:01:15;100022.38;;;12.19;100.00
35435;BME280;21556;55.782;37.528;2023-09-08T03:03:43;100019.53;;;12.02;100.00
35435;BME280;21556;55.782;37.528;2023-09-08T03:06:11;100026.75;;;12.17;100.00
35435;BME280;21556;55.782;37.528;2023-09-08T03:08:39;100019.47;;;11.99;100.00
35435;BME280;21556;55.782;37.528;2023-09-08T03:11:05;100020.94;;;12.38;100.00
35435;BME280;21556;55.782;37.528;2023-09-08T03:13:32;100011.28;;;12.39;100.00
35435;BME280;21556;55.782;37.528;2023-09-08T03:16:07;100013.97;;;12.42;100.00
35435;BME280;21556;55.782;37.528;2023-09-08T03:18:36;100011.75;;;12.10;100.00
35435;BME280;21556;55.782;37.528;2023-09-08T03:21:04;100015.88;;;11.94;100.00
35435;BME280;21556;55.782;37.528;2023-09-08T03:23:39;100004.59;;;12.01;100.00
35435;BME280;21556;55.782;37.528;2023-09-08T03:26:11;100004.47;;;12.53;100.00
35435;BME280;21556;55.782;37.528;2023-09-08T03:28:38;100005.50;;;12.03;100.00
35435;BME280;21556;55.782;37.528;2023-09-08T03:31:07;100002.22;;;12.17;100.00
35435;BME280;21556;55.782;37.528;2023-09-08T03:33:35;100002.28;;;12.21;100.00
35435;BME280;21556;55.782;37.528;2023-09-08T03:36:06;100005.06;;;12.32;100.00
35435;BME280;21556;55.782;37.528;2023-09-08T03:38:33;100003.81;;;12.07;100.00
35435;BME280;21556;55.782;37.528;2023-09-08T03:41:02;99996.25;;;12.28;100.00
35435;BME280;21556;55.782;37.528;2023-09-08T03:43:29;99994.78;;;12.52;100.00
35435;BME280;21556;55.782;37.528;2023-09-08T03:45:56;99992.09;;;12.46;100.00
35435;BME280;21556;55.782;37.528;2023-09-08T03:48:24;99996.69;;;12.01;100.00
35435;BME280;21556;55.782;37.528;2023-09-08T03:50:50;99995.56;;;12.43;100.00
35435;BME280;21556;55.782;37.528;2023-09-08T03:53:20;99990.25;;;12.39;100.00
35435;BME280;21556;55.782;37.528;2023-09-08T03:55:46;99980.06;;;12.66;100.00
35435;BME280;21556;55.782;37.528;2023-09-08T03:58:19;99980.09;;;12.68;100.00
35435;BME280;21556;55.782;37.528;2023-09-08T04:00:45;99981.13;;;12.79;100.00
35435;BME280;21556;55.782;37.528;2023-09-08T04:03:11;99974.31;;;12.99;100.00
35435;BME280;21556;55.782;37.528;2023-09-08T04:05:38;99982.41;;;12.45;100.00
35435;BME280;21556;55.782;37.528;2023-09-08T04:08:04;99990.81;;;12.18;100.00
35435;BME280;21556;55.782;37.528;2023-09-08T04:10:31;99980.59;;;12.39;100.00
35435;BME280;21556;55.782;37.528;2023-09-08T04:12:58;99985.00;;;12.40;100.00
35435;BME280;21556;55.782;37.528;2023-09-08T04:15:26;99980.91;;;12.00;100.00
35435;BME280;21556;55.782;37.528;2023-09-08T04:17:52;99978.50;;;12.14;100.00
35435;BME280;21556;55.782;37.528;2023-09-08T04:20:18;99979.78;;;12.42;100.00
35435;BME280;21556;55.782;37.528;2023-09-08T04:22:44;99966.84;;;12.62;100.00
35435;BME280;21556;55.782;37.528;2023-09-08T04:25:14;99969.38;;;12.54;100.00
35435;BME280;21556;55.782;37.528;2023-09-08T04:27:44;99965.56;;;13.00;100.00
35435;BME280;21556;55.782;37.528;2023-09-08T04:30:12;99962.97;;;13.05;100.00
35435;BME280;21556;55.782;37.528;2023-09-08T04:32:41;99962.72;;;12.85;100.00
35435;BME280;21556;55.782;37.528;2023-09-08T04:35:08;99967.94;;;12.79;100.00
35435;BME280;21556;55.782;37.528;2023-09-08T04:37:35;99960.44;;;13.17;100.00
35435;BME280;21556;55.782;37.528;2023-09-08T04:40:03;99963.13;;;13.19;100.00
35435;BME280;21556;55.782;37.528;2023-09-08T04:42:30;99957.38;;;12.74;100.00
35435;BME280;21556;55.782;37.528;2023-09-08T04:45:01;99952.25;;;12.87;100.00
35435;BME280;21556;55.782;37.528;2023-09-08T04:47:29;99957.63;;;12.97;100.00
35435;BME280;21556;55.782;37.528;2023-09-08T04:49:55;99957.38;;;12.77;100.00
35435;BME280;21556;55.782;37.528;2023-09-08T04:52:24;99955.06;;;13.07;100.00
35435;BME280;21556;55.782;37.528;2023-09-08T04:54:50;99950.13;;;12.58;100.00
35435;BME280;21556;55.782;37.528;2023-09-08T04:57:19;99954.03;;;12.89;100.00
35435;BME280;21556;55.782;37.528;2023-09-08T04:59:49;99946.88;;;12.81;100.00
35435;BME280;21556;55.782;37.528;2023-09-08T05:02:15;99959.97;;;12.73;100.00
35435;BME280;21556;55.782;37.528;2023-09-08T05:04:43;99954.44;;;12.51;100.00
35435;BME280;21556;55.782;37.528;2023-09-08T05:07:10;99946.44;;;12.44;100.00
35435;BME280;21556;55.782;37.528;2023-09-08T05:09:38;99944.25;;;12.81;100.00
35435;BME280;21556;55.782;37.528;2023-09-08T05:12:04;99934.81;;;12.96;100.00
35435;BME280;21556;55.782;37.528;2023-09-08T05:14:36;99922.19;;;12.69;100.00
35435;BME280;21556;55.782;37.528;2023-09-08T05:17:03;99918.72;;;12.73;100.00
35435;BME280;21556;55.782;37.528;2023-09-08T05:19:30;99918.56;;;12.58;100.00
35435;BME280;21556;55.782;37.528;2023-09-08T05:21:57;99926.66;;;12.75;100.00
35435;BME280;21556;55.782;37.528;2023-09-08T05:24:23;99925.06;;;12.91;100.00
35435;BME280;21556;55.782;37.528;2023-09-08T05:26:51;99918.22;;;13.08;100.00
35435;BME280;21556;55.782;37.528;2023-09-08T05:29:17;99916.44;;;13.04;100.00
35435;BME280;21556;55.782;37.528;2023-09-08T05:31:44;99915.44;;;12.96;100.00
35435;BME280;21556;55.782;37.528;2023-09-08T05:34:12;99916.69;;;13.26;100.00
35435;BME280;21556;55.782;37.528;2023-09-08T05:36:38;99912.66;;;13.70;100.00
35435;BME280;21556;55.782;37.528;2023-09-08T05:39:07;99906.16;;;13.30;100.00
35435;BME280;21556;55.782;37.528;2023-09-08T05:41:34;99902.22;;;13.89;100.00
35435;BME280;21556;55.782;37.528;2023-09-08T05:44:01;99896.09;;;13.96;100.00
35435;BME280;21556;55.782;37.528;2023-09-08T05:46:27;99891.38;;;13.49;100.00
35435;BME280;21556;55.782;37.528;2023-09-08T05:48:57;99887.19;;;13.76;100.00
35435;BME280;21556;55.782;37.528;2023-09-08T05:51:23;99886.38;;;13.86;100.00
35435;BME280;21556;55.782;37.528;2023-09-08T05:53:53;99882.09;;;14.03;100.00
35435;BME280;21556;55.782;37.528;2023-09-08T05:56:24;99890.75;;;13.82;100.00
35435;BME280;21556;55.782;37.528;2023-09-08T05:58:55;99880.19;;;13.82;100.00
35435;BME280;21556;55.782;37.528;2023-09-08T06:01:21;99881.00;;;13.72;100.00
35435;BME280;21556;55.782;37.528;2023-09-08T06:03:50;99882.78;;;13.73;100.00
35435;BME280;21556;55.782;37.528;2023-09-08T06:06:16;99876.78;;;13.99;100.00
35435;BME280;21556;55.782;37.528;2023-09-08T06:08:46;99881.03;;;13.75;100.00
35435;BME280;21556;55.782;37.528;2023-09-08T06:11:12;99864.50;;;14.04;100.00
35435;BME280;21556;55.782;37.528;2023-09-08T06:13:38;99864.00;;;15.29;100.00
35435;BME280;21556;55.782;37.528;2023-09-08T06:16:05;99848.97;;;15.54;100.00
35435;BME280;21556;55.782;37.528;2023-09-08T06:18:31;99856.91;;;15.58;100.00
35435;BME280;21556;55.782;37.528;2023-09-08T06:20:58;99859.56;;;15.15;100.00
35435;BME280;21556;55.782;37.528;2023-09-08T06:23:24;99857.78;;;15.02;100.00
35435;BME280;21556;55.782;37.528;2023-09-08T06:25:55;99857.69;;;14.59;100.00
35435;BME280;21556;55.782;37.528;2023-09-08T06:28:28;99857.56;;;14.24;100.00
35435;BME280;21556;55.782;37.528;2023-09-08T06:31:04;99858.63;;;14.81;100.00
35435;BME280;21556;55.782;37.528;2023-09-08T06:33:36;99849.53;;;13.98;100.00
35435;BME280;21556;55.782;37.528;2023-09-08T06:36:04;99857.47;;;14.09;100.00
35435;BME280;21556;55.782;37.528;2023-09-08T06:38:30;99845.97;;;13.91;100.00
35435;BME280;21556;55.782;37.528;2023-09-08T06:41:01;99843.41;;;14.11;100.00
35435;BME280;21556;55.782;37.528;2023-09-08T06:43:29;99840.00;;;14.37;100.00
35435;BME280;21556;55.782;37.528;2023-09-08T06:46:03;99834.59;;;14.03;100.00
35435;BME280;21556;55.782;37.528;2023-09-08T06:48:30;99842.50;;;14.00;100.00
35435;BME280;21556;55.782;37.528;2023-09-08T06:50:56;99840.00;;;14.34;100.00
35435;BME280;21556;55.782;37.528;2023-09-08T06:53:23;99829.28;;;13.91;100.00
35435;BME280;21556;55.782;37.528;2023-09-08T06:55:52;99811.84;;;14.28;100.00
35435;BME280;21556;55.782;37.528;2023-09-08T06:58:18;99816.41;;;15.07;100.00
35435;BME280;21556;55.782;37.528;2023-09-08T07:00:47;99813.75;;;14.89;100.00
35435;BME280;21556;55.782;37.528;2023-09-08T07:03:15;99811.97;;;15.51;100.00
35435;BME280;21556;55.782;37.528;2023-09-08T07:05:42;99799.59;;;15.65;100.00
35435;BME280;21556;55.782;37.528;2023-09-08T07:08:08;99805.53;;;16.36;100.00
35435;BME280;21556;55.782;37.528;2023-09-08T07:10:34;99797.09;;;17.11;100.00
35435;BME280;21556;55.782;37.528;2023-09-08T07:13:01;99793.19;;;18.31;100.00
35435;BME280;21556;55.782;37.528;2023-09-08T07:15:27;99778.97;;;18.33;100.00
35435;BME280;21556;55.782;37.528;2023-09-08T07:17:54;99767.69;;;19.32;100.00
35435;BME280;21556;55.782;37.528;2023-09-08T07:20:21;99770.44;;;19.77;100.00
35435;BME280;21556;55.782;37.528;2023-09-08T07:22:48;99780.28;;;18.65;100.00
35435;BME280;21556;55.782;37.528;2023-09-08T07:25:14;99766.97;;;18.68;100.00
35435;BME280;21556;55.782;37.528;2023-09-08T07:27:41;99781.00;;;18.16;100.00
35435;BME280;21556;55.782;37.528;2023-09-08T07:30:13;99768.06;;;17.88;100.00
35435;BME280;21556;55.782;37.528;2023-09-08T07:32:39;99766.16;;;18.61;100.00
35435;BME280;21556;55.782;37.528;2023-09-08T07:35:05;99766.34;;;17.84;100.00
35435;BME280;21556;55.782;37.528;2023-09-08T07:37:40;99765.59;;;17.70;100.00
35435;BME280;21556;55.782;37.528;2023-09-08T07:40:10;99769.22;;;17.60;100.00
35435;BME280;21556;55.782;37.528;2023-09-08T07:42:37;99764.69;;;18.42;100.00
35435;BME280;21556;55.782;37.528;2023-09-08T07:45:04;99764.97;;;18.85;100.00
35435;BME280;21556;55.782;37.528;2023-09-08T07:47:31;99765.63;;;17.65;100.00
35435;BME280;21556;55.782;37.528;2023-09-08T07:50:21;99755.88;;;16.69;100.00
35435;BME280;21556;55.782;37.528;2023-09-08T07:52:49;99748.06;;;17.53;100.00
35435;BME280;21556;55.782;37.528;2023-09-08T07:55:18;99749.81;;;16.54;100.00
35435;BME280;21556;55.782;37.528;2023-09-08T07:57:45;99742.22;;;17.22;100.00
35435;BME280;21556;55.782;37.528;2023-09-08T08:00:13;99740.41;;;18.06;100.00
35435;BME280;21556;55.782;37.528;2023-09-08T08:02:42;99739.91;;;18.41;100.00
35435;BME280;21556;55.782;37.528;2023-09-08T08:05:10;99732.69;;;18.49;100.00
35435;BME280;21556;55.782;37.528;2023-09-08T08:07:41;99721.59;;;19.33;100.00
35435;BME280;21556;55.782;37.528;2023-09-08T08:10:08;99723.00;;;18.47;100.00
35435;BME280;21556;55.782;37.528;2023-09-08T08:12:34;99718.22;;;18.70;100.00
35435;BME280;21556;55.782;37.528;2023-09-08T08:15:03;99712.56;;;18.92;100.00
35435;BME280;21556;55.782;37.528;2023-09-08T08:17:33;99714.44;;;18.28;100.00
35435;BME280;21556;55.782;37.528;2023-09-08T08:20:04;99702.63;;;17.86;100.00
35435;BME280;21556;55.782;37.528;2023-09-08T08:22:38;99711.25;;;18.62;100.00
35435;BME280;21556;55.782;37.528;2023-09-08T08:25:06;99703.44;;;17.91;100.00
35435;BME280;21556;55.782;37.528;2023-09-08T08:27:35;99705.78;;;17.41;100.00
35435;BME280;21556;55.782;37.528;2023-09-08T08:30:01;99697.06;;;17.30;100.00
35435;BME280;21556;55.782;37.528;2023-09-08T08:32:33;99684.84;;;17.14;100.00
35435;BME280;21556;55.782;37.528;2023-09-08T08:34:59;99682.28;;;17.07;100.00
35435;BME280;21556;55.782;37.528;2023-09-08T08:37:25;99678.41;;;16.42;100.00
35435;BME280;21556;55.782;37.528;2023-09-08T08:39:52;99682.72;;;16.57;100.00
35435;BME280;21556;55.782;37.528;2023-09-08T08:42:18;99677.75;;;16.05;100.00
35435;BME280;21556;55.782;37.528;2023-09-08T08:44:50;99675.75;;;16.44;100.00
35435;BME280;21556;55.782;37.528;2023-09-08T08:47:17;99658.88;;;16.55;100.00
35435;BME280;21556;55.782;37.528;2023-09-08T08:49:48;99662.59;;;16.30;100.00
35435;BME280;21556;55.782;37.528;2023-09-08T08:52:18;99673.22;;;16.27;100.00
35435;BME280;21556;55.782;37.528;2023-09-08T08:54:46;99675.78;;;16.39;100.00
35435;BME280;21556;55.782;37.528;2023-09-08T08:57:14;99662.69;;;16.21;100.00
35435;BME280;21556;55.782;37.528;2023-09-08T08:59:44;99652.00;;;16.31;100.00
35435;BME280;21556;55.782;37.528;2023-09-08T09:02:14;99660.78;;;16.38;100.00
35435;BME280;21556;55.782;37.528;2023-09-08T09:04:40;99653.06;;;16.07;100.00
35435;BME280;21556;55.782;37.528;2023-09-08T09:07:07;99653.03;;;16.13;100.00
35435;BME280;21556;55.782;37.528;2023-09-08T09:09:34;99642.50;;;16.06;100.00
35435;BME280;21556;55.782;37.528;2023-09-08T09:12:00;99645.16;;;16.00;100.00
35435;BME280;21556;55.782;37.528;2023-09-08T09:14:32;99637.91;;;16.28;100.00
35435;BME280;21556;55.782;37.528;2023-09-08T09:16:59;99651.16;;;16.26;100.00
35435;BME280;21556;55.782;37.528;2023-09-08T09:19:27;99634.22;;;16.47;100.00
35435;BME280;21556;55.782;37.528;2023-09-08T09:21:56;99645.31;;;16.94;100.00
35435;BME280;21556;55.782;37.528;2023-09-08T09:27:01;99638.19;;;17.00;100.00
35435;BME280;21556;55.782;37.528;2023-09-08T09:29:28;99620.66;;;16.89;100.00
35435;BME280;21556;55.782;37.528;2023-09-08T09:31:55;99634.75;;;16.88;100.00
35435;BME280;21556;55.782;37.528;2023-09-08T09:34:22;99630.69;;;16.48;100.00
35435;BME280;21556;55.782;37.528;2023-09-08T09:36:50;99638.19;;;15.88;100.00
35435;BME280;21556;55.782;37.528;2023-09-08T09:39:23;99643.44;;;17.05;100.00
35435;BME280;21556;55.782;37.528;2023-09-08T09:41:55;99631.16;;;16.95;100.00
35435;BME280;21556;55.782;37.528;2023-09-08T09:44:23;99624.50;;;16.49;100.00
35435;BME280;21556;55.782;37.528;2023-09-08T09:46:52;99632.75;;;17.14;100.00
35435;BME280;21556;55.782;37.528;2023-09-08T09:49:20;99628.47;;;16.98;100.00
35435;BME280;21556;55.782;37.528;2023-09-08T09:51:50;99626.72;;;16.95;100.00
35435;BME280;21556;55.782;37.528;2023-09-08T09:54:17;99634.75;;;15.74;100.00
35435;BME280;21556;55.782;37.528;2023-09-08T09:56:45;99628.09;;;16.41;100.00
35435;BME280;21556;55.782;37.528;2023-09-08T09:59:15;99630.03;;;16.23;100.00
35435;BME280;21556;55.782;37.528;2023-09-08T10:01:41;99629.31;;;15.98;100.00
35435;BME280;21556;55.782;37.528;2023-09-08T10:04:13;99621.78;;;16.57;100.00
35435;BME280;21556;55.782;37.528;2023-09-08T10:06:42;99619.38;;;16.29;100.00
35435;BME280;21556;55.782;37.528;2023-09-08T10:09:09;99632.72;;;16.14;100.00
35435;BME280;21556;55.782;37.528;2023-09-08T10:11:48;99639.13;;;15.81;100.00
35435;BME280;21556;55.782;37.528;2023-09-08T10:14:18;99636.53;;;15.69;100.00
35435;BME280;21556;55.782;37.528;2023-09-08T10:16:49;99640.88;;;15.80;100.00
35435;BME280;21556;55.782;37.528;2023-09-08T10:19:21;99645.41;;;15.51;100.00
35435;BME280;21556;55.782;37.528;2023-09-08T10:21:50;99648.09;;;15.35;100.00
35435;BME280;21556;55.782;37.528;2023-09-08T10:24:34;99641.94;;;15.32;100.00
35435;BME280;21556;55.782;37.528;2023-09-08T10:27:10;99638.34;;;15.54;100.00
35435;BME280;21556;55.782;37.528;2023-09-08T10:29:37;99643.78;;;14.99;100.00
35435;BME280;21556;55.782;37.528;2023-09-08T10:32:11;99647.34;;;14.93;100.00
35435;BME280;21556;55.782;37.528;2023-09-08T10:34:38;99647.16;;;15.50;100.00
35435;BME280;21556;55.782;37.528;2023-09-08T10:37:26;99650.75;;;15.37;100.00
35435;BME280;21556;55.782;37.528;2023-09-08T10:39:56;99654.06;;;15.85;100.00
35435;BME280;21556;55.782;37.528;2023-09-08T10:42:44;99637.31;;;15.91;100.00
35435;BME280;21556;55.782;37.528;2023-09-08T10:45:18;99644.13;;;16.22;100.00
35435;BME280;21556;55.782;37.528;2023-09-08T10:50:19;99628.88;;;16.53;100.00
35435;BME280;21556;55.782;37.528;2023-09-08T10:53:14;99639.13;;;16.93;100.00
35435;BME280;21556;55.782;37.528;2023-09-08T10:55:47;99626.25;;;16.50;100.00
35435;BME280;21556;55.782;37.528;2023-09-08T10:58:36;99614.22;;;17.11;100.00
35435;BME280;21556;55.782;37.528;2023-09-08T11:01:05;99610.22;;;16.66;100.00
35435;BME280;21556;55.782;37.528;2023-09-08T11:06:17;99619.44;;;16.22;100.00
35435;BME280;21556;55.782;37.528;2023-09-08T11:08:50;99620.44;;;16.01;100.00
35435;BME280;21556;55.782;37.528;2023-09-08T11:11:48;99622.69;;;16.56;100.00
35435;BME280;21556;55.782;37.528;2023-09-08T11:14:29;99622.78;;;16.45;100.00
35435;BME280;21556;55.782;37.528;2023-09-08T11:17:25;99644.13;;;16.27;100.00
35435;BME280;21556;55.782;37.528;2023-09-08T11:20:10;99647.41;;;16.53;100.00
35435;BME280;21556;55.782;37.528;2023-09-08T11:22:40;99660.81;;;16.35;100.00
35435;BME280;21556;55.782;37.528;2023-09-08T11:25:24;99656.19;;;16.60;100.00
35435;BME280;21556;55.782;37.528;2023-09-08T11:27:50;99658.34;;;16.09;100.00
35435;BME280;21556;55.782;37.528;2023-09-08T11:30:19;99661.94;;;15.97;100.00
35435;BME280;21556;55.782;37.528;2023-09-08T11:32:49;99654.91;;;15.93;100.00
35435;BME280;21556;55.782;37.528;2023-09-08T11:35:27;99667.44;;;15.54;100.00
35435;BME280;21556;55.782;37.528;2023-09-08T11:37:59;99664.88;;;15.24;100.00
35435;BME280;21556;55.782;37.528;2023-09-08T11:40:31;99666.59;;;15.40;100.00
35435;BME280;21556;55.782;37.528;2023-09-08T11:43:12;99668.13;;;15.93;100.00
35435;BME280;21556;55.782;37.528;2023-09-08T11:45:42;99665.66;;;15.53;100.00
35435;BME280;21556;55.782;37.528;2023-09-08T11:48:13;99668.31;;;15.55;100.00
35435;BME280;21556;55.782;37.528;2023-09-08T11:50:43;99652.19;;;16.05;100.00
35435;BME280;21556;55.782;37.528;2023-09-08T11:53:19;99659.25;;;16.03;100.00
35435;BME280;21556;55.782;37.528;2023-09-08T11:55:47;99657.50;;;16.05;100.00
35435;BME280;21556;55.782;37.528;2023-09-08T11:58:18;99660.16;;;16.01;100.00
35435;BME280;21556;55.782;37.528;2023-09-08T12:00:45;99655.69;;;16.10;100.00
35435;BME280;21556;55.782;37.528;2023-09-08T12:03:16;99662.28;;;16.71;100.00
35435;BME280;21556;55.782;37.528;2023-09-08T12:05:44;99657.69;;;16.93;100.00
35435;BME280;21556;55.782;37.528;2023-09-08T12:08:10;99658.44;;;17.04;100.00
35435;BME280;21556;55.782;37.528;2023-09-08T12:10:40;99658.78;;;16.66;100.00
35435;BME280;21556;55.782;37.528;2023-09-08T12:13:10;99658.81;;;16.61;100.00
35435;BME280;21556;55.782;37.528;2023-09-08T12:15:42;99657.09;;;16.57;100.00
35435;BME280;21556;55.782;37.528;2023-09-08T12:18:12;99650.84;;;16.65;100.00
35435;BME280;21556;55.782;37.528;2023-09-08T12:21:03;99650.38;;;17.15;100.00
35435;BME280;21556;55.782;37.528;2023-09-08T12:23:33;99654.31;;;16.73;100.00
35435;BME280;21556;55.782;37.528;2023-09-08T12:28:37;99652.81;;;16.41;100.00
35435;BME280;21556;55.782;37.528;2023-09-08T12:31:07;99642.16;;;16.47;100.00
35435;BME280;21556;55.782;37.528;2023-09-08T12:33:42;99649.50;;;16.08;100.00
35435;BME280;21556;55.782;37.528;2023-09-08T12:36:14;99638.06;;;16.06;100.00
35435;BME280;21556;55.782;37.528;2023-09-08T12:38:47;99643.50;;;15.82;100.00
35435;BME280;21556;55.782;37.528;2023-09-08T12:41:22;99645.91;;;16.20;100.00
35435;BME280;21556;55.782;37.528;2023-09-08T12:43:49;99661.00;;;16.04;100.00
35435;BME280;21556;55.782;37.528;2023-09-08T12:46:17;99652.03;;;16.28;100.00
35435;BME280;21556;55.782;37.528;2023-09-08T12:48:55;99657.22;;;16.42;100.00
35435;BME280;21556;55.782;37.528;2023-09-08T12:51:21;99664.44;;;16.23;100.00
35435;BME280;21556;55.782;37.528;2023-09-08T12:53:50;99668.13;;;15.96;100.00
35435;BME280;21556;55.782;37.528;2023-09-08T12:56:19;99658.31;;;16.17;100.00
35435;BME280;21556;55.782;37.528;2023-09-08T12:58:52;99660.03;;;16.18;100.00
35435;BME280;21556;55.782;37.528;2023-09-08T13:01:21;99664.47;;;16.16;100.00
35435;BME280;21556;55.782;37.528;2023-09-08T13:03:48;99673.19;;;16.34;100.00